CPX780 Details

Departure: Incheon International Airport (RKSI)
Arrival: Taiwan Taoyuan International Airport (RCTP) at N/A
Route: BOPTA1K BOPTA Z51 BEDES Y711 MUGUS Y742 SALMI Q11 DRAKE DRAKE1B
Notes:


Current Weather Information
RKSI 230800Z 05004KT 9999 FEW040 BKN180 20/09 Q1018 NOSIG
RCTP 230800Z 04012KT 9999 FEW015 SCT030 BKN050 24/19 Q1012 NOSIG RMK A2991